createdAt,value
2022-10-11T00:00:26.708Z,38.60
2022-10-11T00:01:26.812Z,34.00
2022-10-11T00:02:26.688Z,38.50
2022-10-11T00:03:26.679Z,35.50
2022-10-11T00:04:26.688Z,32.90
2022-10-11T00:05:26.660Z,39.50
2022-10-11T00:06:26.647Z,35.00
2022-10-11T00:07:26.640Z,30.40
2022-10-11T00:08:26.641Z,34.30
2022-10-11T00:09:26.641Z,40.70
2022-10-11T00:10:26.613Z,37.20
2022-10-11T00:11:26.594Z,36.30
2022-10-11T00:12:26.582Z,36.90
2022-10-11T00:13:26.573Z,43.30
2022-10-11T00:14:26.582Z,36.20
2022-10-11T00:15:26.555Z,45.80
2022-10-11T00:16:26.543Z,33.00
2022-10-11T00:17:26.534Z,40.80
2022-10-11T00:18:26.524Z,34.90
2022-10-11T00:19:26.533Z,40.70
2022-10-11T00:20:26.554Z,34.60
2022-10-11T00:21:26.495Z,34.20
2022-10-11T00:22:26.475Z,32.90
2022-10-11T00:23:26.475Z,33.30
2022-10-11T00:24:26.457Z,39.80
2022-10-11T00:25:26.466Z,37.70
2022-10-11T00:26:26.436Z,38.20
2022-10-11T00:27:26.427Z,36.50
2022-10-11T00:28:26.446Z,35.40
2022-10-11T00:29:26.412Z,32.30
2022-10-11T00:30:26.413Z,36.90
2022-10-11T00:31:26.405Z,41.40
2022-10-11T00:32:26.368Z,30.80
2022-10-11T00:33:26.367Z,38.40
2022-10-11T00:34:26.350Z,35.20
2022-10-11T00:35:26.361Z,32.40
2022-10-11T00:36:26.330Z,32.40
2022-10-11T00:37:26.327Z,34.60
2022-10-11T00:38:26.315Z,36.20
2022-10-11T00:39:26.304Z,42.10
2022-10-11T00:40:26.307Z,42.80
2022-10-11T00:41:26.282Z,37.50
2022-10-11T00:42:26.263Z,39.80
2022-10-11T00:43:26.261Z,35.70
2022-10-11T00:44:26.242Z,31.40
2022-10-11T00:45:26.266Z,30.80
2022-10-11T00:46:26.234Z,33.90
2022-10-11T00:47:26.223Z,30.50
2022-10-11T00:48:26.203Z,39.20
2022-10-11T00:49:26.194Z,33.20
2022-10-11T00:50:26.204Z,32.10
2022-10-11T00:51:26.182Z,34.90
2022-10-11T00:52:26.163Z,36.50
2022-10-11T00:53:26.161Z,37.40
2022-10-11T00:54:26.146Z,34.90
2022-10-11T00:55:26.146Z,33.00
2022-10-11T00:56:26.119Z,34.70
2022-10-11T00:57:26.112Z,33.40
2022-10-11T00:58:26.097Z,31.30
2022-10-11T00:59:26.087Z,29.90
2022-10-11T01:00:26.095Z,28.40
2022-10-11T01:01:26.112Z,30.50
2022-10-11T01:02:26.062Z,38.30
2022-10-11T01:03:26.061Z,35.80
2022-10-11T01:04:26.035Z,33.00
2022-10-11T01:05:29.625Z,34.60
2022-10-11T01:06:26.024Z,36.40
2022-10-11T01:07:26.010Z,32.90
2022-10-11T01:08:26.041Z,38.00
2022-10-11T01:09:25.991Z,32.70
2022-10-11T01:10:25.999Z,37.40
2022-10-11T01:11:25.961Z,33.30
2022-10-11T01:12:25.951Z,38.00
2022-10-11T01:13:26.031Z,33.30
2022-10-11T01:14:25.930Z,28.90
2022-10-11T01:15:25.940Z,28.30
2022-10-11T01:16:25.912Z,32.30
2022-10-11T01:17:25.904Z,25.20
2022-10-11T01:18:25.882Z,33.50
2022-10-11T01:19:25.880Z,32.80
2022-10-11T01:20:25.882Z,28.60
2022-10-11T01:21:25.872Z,31.60
2022-10-11T01:22:25.843Z,35.40
2022-10-11T01:23:25.834Z,30.00
2022-10-11T01:24:25.823Z,33.40
2022-10-11T01:25:25.834Z,28.90
2022-10-11T01:26:25.815Z,36.20
2022-10-11T01:27:25.794Z,35.50
2022-10-11T01:28:25.809Z,36.90
2022-10-11T01:29:25.775Z,31.50
2022-10-11T01:30:25.787Z,34.80
2022-10-11T01:31:25.760Z,32.00
2022-10-11T01:32:25.736Z,37.90
2022-10-11T01:33:25.728Z,32.50
2022-10-11T01:34:25.716Z,40.70
2022-10-11T01:35:25.728Z,36.70
2022-10-11T01:36:25.698Z,34.00
2022-10-11T01:37:25.688Z,38.10
2022-10-11T01:38:25.680Z,36.70
2022-10-11T01:39:25.667Z,34.20
2022-10-11T01:40:25.670Z,29.70
2022-10-11T01:41:25.649Z,36.30
2022-10-11T01:42:25.629Z,35.70
2022-10-11T01:43:25.632Z,36.60
2022-10-11T01:44:25.610Z,41.80
2022-10-11T01:45:25.623Z,35.90
2022-10-11T01:46:25.592Z,37.70
2022-10-11T01:47:25.590Z,36.50
2022-10-11T01:48:25.579Z,30.60
2022-10-11T01:49:25.571Z,39.10
2022-10-11T01:50:25.562Z,33.40
2022-10-11T01:51:25.548Z,38.30
2022-10-11T01:52:25.522Z,46.50
2022-10-11T01:53:25.522Z,39.20
2022-10-11T01:54:25.503Z,32.60
2022-10-11T01:55:25.522Z,38.30
2022-10-11T01:56:25.514Z,36.70
2022-10-11T01:57:25.483Z,37.60
2022-10-11T01:58:25.464Z,34.00
2022-10-11T01:59:25.456Z,33.20
2022-10-11T02:00:25.454Z,26.60
2022-10-11T02:01:25.486Z,33.10
2022-10-11T02:02:25.425Z,33.00
2022-10-11T02:03:25.415Z,29.50
2022-10-11T02:04:25.409Z,31.90
2022-10-11T02:05:25.415Z,30.20
2022-10-11T02:06:25.376Z,32.70
2022-10-11T02:07:25.377Z,28.80
2022-10-11T02:08:25.357Z,27.40
2022-10-11T02:09:25.348Z,24.70
2022-10-11T02:10:25.348Z,34.70
2022-10-11T02:11:25.329Z,28.10
2022-10-11T02:12:25.319Z,31.10
2022-10-11T02:13:25.309Z,31.70
2022-10-11T02:14:25.288Z,27.10
2022-10-11T02:15:25.308Z,32.40
2022-10-11T02:16:25.292Z,26.10
2022-10-11T02:17:25.268Z,28.10
2022-10-11T02:18:25.250Z,25.30
2022-10-11T02:19:25.279Z,32.20
2022-10-11T02:20:25.249Z,33.40
2022-10-11T02:21:25.221Z,33.00
2022-10-11T02:22:25.225Z,35.00
2022-10-11T02:23:25.205Z,38.20
2022-10-11T02:24:25.194Z,34.00
2022-10-11T02:25:25.213Z,41.30
2022-10-11T02:26:25.173Z,35.20
2022-10-11T02:27:25.163Z,36.70
2022-10-11T02:28:25.179Z,38.00
2022-10-11T02:29:25.143Z,33.40
2022-10-11T02:30:25.143Z,33.50
2022-10-11T02:31:25.135Z,29.80
2022-10-11T02:32:25.104Z,40.50
2022-10-11T02:33:25.094Z,34.10
2022-10-11T02:34:25.083Z,35.20
2022-10-11T02:35:25.096Z,34.60
2022-10-11T02:36:25.062Z,35.50
2022-10-11T02:37:25.054Z,36.20
2022-10-11T02:38:25.045Z,30.80
2022-10-11T02:39:25.036Z,30.40
2022-10-11T02:40:25.039Z,29.60
2022-10-11T02:41:25.020Z,32.70
2022-10-11T02:42:25.054Z,29.70
2022-10-11T02:43:24.996Z,32.80
2022-10-11T02:44:24.977Z,30.00
2022-10-11T02:45:24.989Z,29.40
2022-10-11T02:46:24.957Z,29.80
2022-10-11T02:47:24.947Z,29.50
2022-10-11T02:48:24.939Z,26.60
2022-10-11T02:49:24.931Z,29.30
2022-10-11T02:50:24.930Z,32.00
2022-10-11T02:51:24.910Z,29.10
2022-10-11T02:52:24.890Z,30.50
2022-10-11T02:53:24.893Z,29.30
2022-10-11T02:54:24.872Z,25.00
2022-10-11T02:55:24.881Z,31.90
2022-10-11T02:56:24.851Z,29.20
2022-10-11T02:57:24.841Z,29.90
2022-10-11T02:58:24.830Z,29.70
2022-10-11T02:59:24.821Z,28.10
2022-10-11T03:00:24.841Z,29.50
2022-10-11T03:01:24.847Z,30.00
2022-10-11T03:02:24.811Z,26.90
2022-10-11T03:03:24.772Z,26.90
2022-10-11T03:04:24.773Z,28.60
2022-10-11T03:05:24.775Z,28.80
2022-10-11T03:06:24.751Z,24.00
2022-10-11T03:07:24.733Z,32.20
2022-10-11T03:08:24.724Z,23.20
2022-10-11T03:09:24.714Z,26.50
2022-10-11T03:10:24.733Z,25.80
2022-10-11T03:11:24.701Z,23.00
2022-10-11T03:12:24.692Z,24.90
2022-10-11T03:13:24.667Z,24.60
2022-10-11T03:14:24.665Z,27.10
2022-10-11T03:15:24.646Z,25.60
2022-10-11T03:16:24.707Z,24.30
2022-10-11T03:17:36.316Z,27.60
2022-10-11T03:18:25.626Z,29.70
2022-10-11T03:19:24.606Z,27.00
2022-10-11T03:20:24.600Z,23.80
2022-10-11T03:21:24.599Z,23.40
2022-10-11T03:22:24.585Z,27.60
2022-10-11T03:23:24.565Z,23.80
2022-10-11T03:24:24.560Z,26.30
2022-10-11T03:25:24.546Z,26.90
2022-10-11T03:26:24.569Z,28.30
2022-10-11T03:27:24.519Z,29.00
2022-10-11T03:28:24.575Z,27.30
2022-10-11T03:29:24.498Z,26.20
2022-10-11T03:30:24.490Z,29.20
2022-10-11T03:31:24.500Z,27.00
2022-10-11T03:32:24.470Z,25.00
2022-10-11T03:33:24.460Z,26.90
2022-10-11T03:34:24.455Z,24.30
2022-10-11T03:35:24.443Z,26.80
2022-10-11T03:36:24.492Z,21.90
2022-10-11T03:37:24.419Z,20.60
2022-10-11T03:38:24.412Z,27.30
2022-10-11T03:39:24.423Z,27.30
2022-10-11T03:40:24.391Z,24.10
2022-10-11T03:41:24.401Z,24.40
2022-10-11T03:42:24.363Z,24.40
2022-10-11T03:43:24.353Z,27.10
2022-10-11T03:44:24.353Z,27.00
2022-10-11T03:45:24.334Z,24.70
2022-10-11T03:46:24.345Z,27.60
2022-10-11T03:47:24.314Z,25.10
2022-10-11T03:48:24.307Z,22.80
2022-10-11T03:49:24.295Z,25.10
2022-10-11T03:50:24.285Z,19.80
2022-10-11T03:51:24.286Z,22.80
2022-10-11T03:52:24.265Z,26.70
2022-10-11T03:53:24.247Z,30.20
2022-10-11T03:54:24.247Z,31.30
2022-10-11T03:55:24.236Z,30.60
2022-10-11T03:56:24.245Z,33.80
2022-10-11T03:57:24.229Z,30.00
2022-10-11T03:58:24.207Z,33.60
2022-10-11T03:59:24.188Z,32.00
2022-10-11T04:00:24.188Z,29.40
2022-10-11T04:01:24.242Z,34.70
2022-10-11T04:02:24.168Z,29.50
2022-10-11T04:03:24.151Z,24.70
2022-10-11T04:04:24.140Z,31.90
2022-10-11T04:05:24.121Z,25.70
2022-10-11T04:06:24.145Z,27.50
2022-10-11T04:07:24.114Z,29.30
2022-10-11T04:08:24.102Z,30.50
2022-10-11T04:09:24.112Z,27.80
2022-10-11T04:10:24.080Z,28.30
2022-10-11T04:11:24.082Z,26.70
2022-10-11T04:12:24.067Z,34.90
2022-10-11T04:13:24.041Z,23.00
2022-10-11T04:14:24.040Z,30.60
2022-10-11T04:15:24.035Z,30.60
2022-10-11T04:16:24.032Z,27.70
2022-10-11T04:17:24.004Z,29.10
2022-10-11T04:18:23.993Z,26.00
2022-10-11T04:19:23.986Z,29.90
2022-10-11T04:20:23.987Z,30.70
2022-10-11T04:21:23.975Z,29.30
2022-10-11T04:22:23.962Z,23.50
2022-10-11T04:23:23.935Z,27.50
2022-10-11T04:24:23.943Z,25.20
2022-10-11T04:25:23.926Z,24.20
2022-10-11T04:26:23.938Z,27.30
2022-10-11T04:27:23.902Z,26.10
2022-10-11T04:28:23.961Z,24.80
2022-10-11T04:29:25.123Z,27.60
2022-10-11T04:30:23.874Z,24.10
2022-10-11T04:31:23.876Z,22.40
2022-10-11T04:32:23.944Z,25.00
2022-10-11T04:33:23.836Z,26.70
2022-10-11T04:34:23.837Z,20.80
2022-10-11T04:35:23.816Z,22.40
2022-10-11T04:36:23.826Z,19.20
2022-10-11T04:37:23.797Z,22.60
2022-10-11T04:38:23.790Z,22.80
2022-10-11T04:39:23.768Z,28.60
2022-10-11T04:40:23.769Z,24.50
2022-10-11T04:41:23.768Z,28.90
2022-10-11T04:42:23.751Z,33.50
2022-10-11T04:43:23.751Z,32.70
2022-10-11T04:44:23.720Z,29.60
2022-10-11T04:45:23.719Z,28.40
2022-10-11T04:46:23.718Z,28.60
2022-10-11T04:47:23.690Z,29.90
2022-10-11T04:48:23.681Z,32.20
2022-10-11T04:49:23.671Z,24.90
2022-10-11T04:50:23.668Z,24.40
2022-10-11T04:51:23.662Z,23.30
2022-10-11T04:52:25.890Z,28.60
2022-10-11T04:53:23.623Z,26.20
2022-10-11T04:54:23.622Z,25.80
2022-10-11T04:55:23.604Z,26.60
2022-10-11T04:56:23.623Z,28.80
2022-10-11T04:57:23.586Z,32.30
2022-10-11T04:58:23.583Z,28.00
2022-10-11T04:59:23.565Z,23.90
2022-10-11T05:00:23.565Z,26.70
2022-10-11T05:01:23.575Z,28.10
2022-10-11T05:02:23.612Z,27.60
2022-10-11T05:03:23.524Z,26.90
2022-10-11T05:04:23.516Z,31.60
2022-10-11T05:05:23.512Z,25.20
2022-10-11T05:06:23.516Z,26.50
2022-10-11T05:07:23.486Z,27.50
2022-10-11T05:08:23.487Z,27.10
2022-10-11T05:09:23.465Z,28.40
2022-10-11T05:10:23.466Z,31.20
2022-10-11T05:11:23.458Z,26.40
2022-10-11T05:12:24.263Z,28.00
2022-10-11T05:13:24.328Z,28.20
2022-10-11T05:14:23.433Z,27.70
2022-10-11T05:15:23.419Z,25.90
2022-10-11T05:16:23.431Z,26.50
2022-10-11T05:17:23.349Z,25.00
2022-10-11T05:18:23.329Z,32.50
2022-10-11T05:19:23.470Z,28.70
2022-10-11T05:20:23.410Z,29.10
2022-10-11T05:21:23.373Z,27.90
2022-10-11T05:22:23.301Z,32.40
2022-10-11T05:23:23.383Z,27.00
2022-10-11T05:24:23.273Z,24.80
2022-10-11T05:25:23.250Z,30.10
2022-10-11T05:26:23.252Z,28.80
2022-10-11T05:27:23.221Z,28.60
2022-10-11T05:28:23.238Z,25.30
2022-10-11T05:29:23.203Z,25.20
2022-10-11T05:30:23.200Z,29.90
2022-10-11T05:31:23.195Z,30.80
2022-10-11T05:32:26.714Z,25.80
2022-10-11T05:33:23.163Z,32.50
2022-10-11T05:34:23.153Z,29.60
2022-10-11T05:35:23.141Z,26.80
2022-10-11T05:36:23.145Z,28.70
2022-10-11T05:37:23.114Z,36.40
2022-10-11T05:38:23.113Z,28.00
2022-10-11T05:39:23.094Z,33.70
2022-10-11T05:40:23.096Z,28.70
2022-10-11T05:41:23.096Z,27.40
2022-10-11T05:42:23.078Z,35.70
2022-10-11T05:43:23.066Z,28.70
2022-10-11T05:44:23.046Z,27.30
2022-10-11T05:45:23.037Z,29.00
2022-10-11T05:46:23.050Z,24.00
2022-10-11T05:47:23.031Z,23.40
2022-10-11T05:48:23.007Z,37.90
2022-10-11T05:49:22.987Z,32.80
2022-10-11T05:50:24.467Z,28.60
2022-10-11T05:51:22.989Z,27.10
2022-10-11T05:52:22.967Z,27.90
2022-10-11T05:53:22.948Z,28.00
2022-10-11T05:54:22.948Z,28.20
2022-10-11T05:55:22.937Z,32.50
2022-10-11T05:56:22.960Z,48.60
2022-10-11T05:57:22.909Z,49.60
2022-10-11T05:58:22.908Z,48.90
2022-10-11T05:59:22.890Z,46.00
2022-10-11T06:00:22.881Z,44.50
2022-10-11T06:01:23.060Z,54.90
2022-10-11T06:02:22.861Z,47.60
2022-10-11T06:03:22.860Z,44.60
2022-10-11T06:04:22.842Z,43.80
2022-10-11T06:05:22.833Z,43.10
2022-10-11T06:06:22.840Z,39.60
2022-10-11T06:07:22.811Z,37.90
2022-10-11T06:08:22.802Z,40.10
2022-10-11T06:09:22.803Z,40.20
2022-10-11T06:10:22.775Z,35.50
2022-10-11T06:11:22.797Z,35.60
2022-10-11T06:12:22.763Z,35.90
2022-10-11T06:13:22.813Z,47.20
2022-10-11T06:14:22.736Z,36.60
2022-10-11T06:15:22.724Z,41.40
2022-10-11T06:16:22.744Z,38.00
2022-10-11T06:17:22.705Z,42.80
2022-10-11T06:18:22.708Z,48.70
2022-10-11T06:19:22.686Z,38.40
2022-10-11T06:20:22.686Z,44.40
2022-10-11T06:21:22.682Z,38.40
2022-10-11T06:22:22.655Z,40.10
2022-10-11T06:23:22.637Z,39.00
2022-10-11T06:24:22.635Z,39.50
2022-10-11T06:25:22.625Z,40.00
2022-10-11T06:26:22.634Z,41.60
2022-10-11T06:27:22.606Z,38.00
2022-10-11T06:28:22.644Z,39.50
2022-10-11T06:29:22.581Z,41.00
2022-10-11T06:30:23.538Z,39.50
2022-10-11T06:31:22.578Z,40.90
2022-10-11T06:32:22.559Z,40.70
2022-10-11T06:33:22.807Z,46.80
2022-10-11T06:34:22.540Z,45.70
2022-10-11T06:35:22.529Z,53.80
2022-10-11T06:36:22.530Z,50.60
2022-10-11T06:37:22.499Z,47.50
2022-10-11T06:38:22.500Z,47.40
2022-10-11T06:39:22.488Z,46.10
2022-10-11T06:40:22.487Z,44.00
2022-10-11T06:41:22.485Z,51.90
2022-10-11T06:42:22.452Z,48.20
2022-10-11T06:43:22.445Z,50.60
2022-10-11T06:44:22.436Z,44.70
2022-10-11T06:45:22.420Z,48.70
2022-10-11T06:46:22.422Z,41.70
2022-10-11T06:47:22.400Z,40.40
2022-10-11T06:48:22.390Z,41.00
2022-10-11T06:49:23.610Z,48.00
2022-10-11T06:50:40.732Z,42.00
2022-10-11T06:51:23.368Z,38.70
2022-10-11T06:52:22.373Z,50.90
2022-10-11T06:53:22.335Z,48.80
2022-10-11T06:54:22.325Z,42.70
2022-10-11T06:55:22.306Z,45.90
2022-10-11T06:56:22.326Z,49.70
2022-10-11T06:57:22.286Z,43.50
2022-10-11T06:58:22.286Z,41.20
2022-10-11T06:59:22.266Z,49.90
2022-10-11T07:00:22.276Z,50.20
2022-10-11T07:01:22.314Z,42.90
2022-10-11T07:02:22.236Z,49.90
2022-10-11T07:03:22.229Z,47.30
2022-10-11T07:04:22.222Z,50.20
2022-10-11T07:05:22.204Z,43.20
2022-10-11T07:06:22.216Z,48.10
2022-10-11T07:07:22.178Z,41.20
2022-10-11T07:08:22.178Z,40.90
2022-10-11T07:09:22.161Z,44.20
2022-10-11T07:10:22.150Z,44.80
2022-10-11T07:11:22.160Z,42.30
2022-10-11T07:12:22.131Z,50.50
2022-10-11T07:13:22.117Z,49.80
2022-10-11T07:14:22.109Z,50.80
2022-10-11T07:15:22.110Z,44.10
2022-10-11T07:16:22.101Z,49.80
2022-10-11T07:17:22.081Z,52.00
2022-10-11T07:18:22.064Z,49.70
2022-10-11T07:19:22.067Z,55.00
2022-10-11T07:20:22.045Z,56.30
2022-10-11T07:21:22.073Z,43.70
2022-10-11T07:22:22.064Z,54.50
2022-10-11T07:23:22.015Z,44.50
2022-10-11T07:24:22.003Z,44.70
2022-10-11T07:25:22.019Z,45.60
2022-10-11T07:26:21.994Z,49.80
2022-10-11T07:27:21.978Z,51.40
2022-10-11T07:28:21.982Z,44.80
2022-10-11T07:29:21.959Z,50.90
2022-10-11T07:30:21.943Z,53.30
2022-10-11T07:31:21.954Z,45.90
2022-10-11T07:32:21.916Z,46.80
2022-10-11T07:33:21.912Z,42.70
2022-10-11T07:34:21.896Z,45.10
2022-10-11T07:35:21.886Z,45.00
2022-10-11T07:36:21.887Z,43.20
2022-10-11T07:37:21.879Z,54.00
2022-10-11T07:38:21.856Z,55.50
2022-10-11T07:39:21.847Z,46.20
2022-10-11T07:40:21.837Z,54.40
2022-10-11T07:41:21.847Z,48.10
2022-10-11T07:42:21.809Z,52.70
2022-10-11T07:43:21.810Z,56.70
2022-10-11T07:44:21.789Z,45.90
2022-10-11T07:45:21.787Z,48.30
2022-10-11T07:46:21.798Z,52.90
2022-10-11T07:47:21.766Z,57.20
2022-10-11T07:48:21.750Z,55.40
2022-10-11T07:49:21.739Z,46.80
2022-10-11T07:50:21.740Z,47.40
2022-10-11T07:51:21.762Z,53.00
2022-10-11T07:52:21.711Z,55.50
2022-10-11T07:53:21.725Z,51.90
2022-10-11T07:54:21.682Z,53.00
2022-10-11T07:55:21.692Z,49.30
2022-10-11T07:56:21.687Z,56.70
2022-10-11T07:57:21.664Z,54.20
2022-10-11T07:58:21.644Z,55.30
2022-10-11T07:59:21.633Z,61.30
2022-10-11T08:00:21.623Z,50.10
2022-10-11T08:01:21.705Z,54.50
2022-10-11T08:02:21.602Z,54.50
2022-10-11T08:03:21.596Z,59.00
2022-10-11T08:04:21.588Z,51.10
2022-10-11T08:05:21.575Z,59.40
2022-10-11T08:06:21.576Z,60.80
2022-10-11T08:07:21.556Z,67.40
2022-10-11T08:08:21.545Z,62.80
2022-10-11T08:09:21.538Z,54.10
2022-10-11T08:10:21.518Z,48.00
2022-10-11T08:11:21.527Z,57.00
2022-10-11T08:12:21.497Z,54.50
2022-10-11T08:13:21.488Z,54.70
2022-10-11T08:14:21.483Z,54.20
2022-10-11T08:15:21.470Z,60.60
2022-10-11T08:16:21.487Z,62.20
2022-10-11T08:17:21.459Z,48.20
2022-10-11T08:18:21.438Z,46.10
2022-10-11T08:19:21.431Z,48.30
2022-10-11T08:20:21.420Z,47.30
2022-10-11T08:21:21.442Z,55.90
2022-10-11T08:22:21.391Z,48.90
2022-10-11T08:23:21.382Z,58.00
2022-10-11T08:24:21.381Z,46.70
2022-10-11T08:25:21.377Z,56.80
2022-10-11T08:26:21.366Z,47.00
2022-10-11T08:27:21.442Z,47.70
2022-10-11T08:28:21.408Z,44.90
2022-10-11T08:29:21.319Z,45.10
2022-10-11T08:30:21.304Z,46.60
2022-10-11T08:31:21.295Z,49.10
2022-10-11T08:32:21.303Z,48.40
2022-10-11T08:33:21.274Z,48.40
2022-10-11T08:34:21.281Z,41.00
2022-10-11T08:35:21.281Z,49.80
2022-10-11T08:36:21.242Z,51.70
2022-10-11T08:37:21.256Z,48.00
2022-10-11T08:38:21.229Z,41.50
2022-10-11T08:39:21.216Z,48.60
2022-10-11T08:40:21.246Z,45.50
2022-10-11T08:41:21.209Z,45.40
2022-10-11T08:42:21.207Z,46.70
2022-10-11T08:43:21.167Z,50.30
2022-10-11T08:44:21.160Z,49.40
2022-10-11T08:45:21.148Z,41.50
2022-10-11T08:46:21.138Z,40.70
2022-10-11T08:47:21.147Z,46.00
2022-10-11T08:48:21.118Z,45.80
2022-10-11T08:49:21.111Z,44.40
2022-10-11T08:50:21.110Z,46.30
2022-10-11T08:51:21.089Z,46.90
2022-10-11T08:52:21.089Z,45.50
2022-10-11T08:53:21.061Z,49.80
2022-10-11T08:54:21.050Z,41.00
2022-10-11T08:55:21.041Z,41.30
2022-10-11T08:56:21.039Z,47.80
2022-10-11T08:57:21.041Z,42.00
2022-10-11T08:58:21.012Z,51.70
2022-10-11T08:59:21.021Z,54.50
2022-10-11T09:00:21.046Z,46.60
2022-10-11T09:01:21.033Z,45.20
2022-10-11T09:02:20.985Z,46.90
2022-10-11T09:03:20.967Z,45.80
2022-10-11T09:04:20.968Z,43.10
2022-10-11T09:05:20.944Z,39.90
2022-10-11T09:06:20.936Z,45.20
2022-10-11T09:07:21.048Z,43.90
2022-10-11T09:08:20.906Z,42.60
2022-10-11T09:09:20.895Z,40.40
2022-10-11T09:10:20.999Z,47.10
2022-10-11T09:11:20.875Z,43.30
2022-10-11T09:12:20.877Z,46.70
2022-10-11T09:13:20.857Z,44.10
2022-10-11T09:14:20.841Z,44.70
2022-10-11T09:15:20.846Z,39.10
2022-10-11T09:16:20.839Z,47.00
2022-10-11T09:17:20.838Z,48.10
2022-10-11T09:18:20.808Z,43.70
2022-10-11T09:19:20.798Z,44.80
2022-10-11T09:20:20.781Z,46.50
2022-10-11T09:21:20.779Z,49.60
2022-10-11T09:22:20.778Z,44.40
2022-10-11T09:23:20.759Z,43.60
2022-10-11T09:24:20.753Z,40.80
2022-10-11T09:25:20.730Z,52.00
2022-10-11T09:26:20.720Z,39.20
2022-10-11T09:27:29.095Z,40.90
2022-10-11T09:28:21.728Z,40.70
2022-10-11T09:29:20.692Z,43.70
2022-10-11T09:30:20.672Z,46.80
2022-10-11T09:31:20.674Z,39.10
2022-10-11T09:32:20.663Z,42.80
2022-10-11T09:33:20.660Z,45.50
2022-10-11T09:34:20.640Z,44.10
2022-10-11T09:35:20.623Z,36.30
2022-10-11T09:36:20.627Z,34.70
2022-10-11T09:37:20.658Z,41.60
2022-10-11T09:38:20.605Z,43.30
2022-10-11T09:39:20.583Z,50.90
2022-10-11T09:40:20.569Z,44.90
2022-10-11T09:41:20.565Z,40.00
2022-10-11T09:42:20.566Z,39.40
2022-10-11T09:43:20.536Z,40.50
2022-10-11T09:44:20.557Z,45.00
2022-10-11T09:45:20.527Z,36.70
2022-10-11T09:46:20.518Z,41.10
2022-10-11T09:47:20.498Z,45.50
2022-10-11T09:48:20.478Z,45.80
2022-10-11T09:49:20.487Z,44.70
2022-10-11T09:50:20.466Z,37.40
2022-10-11T09:51:20.476Z,44.90
2022-10-11T09:52:20.439Z,45.00
2022-10-11T09:53:20.438Z,38.10
2022-10-11T09:54:20.420Z,47.10
2022-10-11T09:55:20.411Z,40.30
2022-10-11T09:56:20.421Z,45.50
2022-10-11T09:57:20.402Z,40.40
2022-10-11T09:58:20.372Z,47.30
2022-10-11T09:59:20.371Z,35.90
2022-10-11T10:00:20.363Z,33.50
2022-10-11T10:01:20.429Z,36.90
2022-10-11T10:02:20.332Z,36.40
2022-10-11T10:03:20.331Z,42.20
2022-10-11T10:04:20.303Z,40.60
2022-10-11T10:05:20.404Z,38.60
2022-10-11T10:06:20.307Z,40.50
2022-10-11T10:07:20.287Z,39.40
2022-10-11T10:08:20.265Z,42.80
2022-10-11T10:09:20.265Z,41.80
2022-10-11T10:10:20.244Z,41.20
2022-10-11T10:11:20.258Z,42.20
2022-10-11T10:12:20.225Z,40.80
2022-10-11T10:13:20.228Z,41.60
2022-10-11T10:14:20.209Z,32.90
2022-10-11T10:15:20.209Z,37.60
2022-10-11T10:16:20.198Z,41.20
2022-10-11T10:17:20.178Z,32.70
2022-10-11T10:18:20.167Z,46.80
2022-10-11T10:19:20.166Z,37.60
2022-10-11T10:20:20.142Z,39.90
2022-10-11T10:21:20.158Z,44.30
2022-10-11T10:22:20.123Z,40.10
2022-10-11T10:23:20.114Z,34.50
2022-10-11T10:24:20.103Z,35.30
2022-10-11T10:25:20.105Z,35.50
2022-10-11T10:26:20.101Z,37.00
2022-10-11T10:27:20.073Z,43.60
2022-10-11T10:28:20.098Z,47.10
2022-10-11T10:29:20.053Z,41.70
2022-10-11T10:30:20.059Z,40.70
2022-10-11T10:31:20.063Z,34.90
2022-10-11T10:32:20.015Z,41.90
2022-10-11T10:33:20.014Z,42.50
2022-10-11T10:34:20.009Z,42.00
2022-10-11T10:35:19.985Z,41.30
2022-10-11T10:36:20.024Z,39.10
2022-10-11T10:37:19.966Z,34.50
2022-10-11T10:38:25.544Z,38.00
2022-10-11T10:39:20.946Z,34.20
2022-10-11T10:40:19.941Z,37.80
2022-10-11T10:41:19.935Z,36.10
2022-10-11T10:42:19.933Z,31.80
2022-10-11T10:43:19.898Z,40.10
2022-10-11T10:44:19.888Z,31.90
2022-10-11T10:45:21.846Z,37.10
2022-10-11T10:46:19.865Z,32.70
2022-10-11T10:47:19.880Z,37.80
2022-10-11T10:48:19.850Z,34.40
2022-10-11T10:49:41.511Z,39.70
2022-10-11T10:50:20.825Z,35.40
2022-10-11T10:51:19.821Z,36.40
2022-10-11T10:52:19.822Z,37.50
2022-10-11T10:53:19.803Z,36.70
2022-10-11T10:54:19.792Z,31.80
2022-10-11T10:55:19.815Z,40.20
2022-10-11T10:56:19.761Z,32.30
2022-10-11T10:57:19.783Z,30.00
2022-10-11T10:58:19.734Z,35.90
2022-10-11T10:59:19.736Z,30.70
2022-10-11T11:00:19.727Z,36.70
2022-10-11T11:01:19.750Z,31.90
2022-10-11T11:02:39.648Z,32.30
2022-10-11T11:03:20.687Z,34.10
2022-10-11T11:04:19.675Z,32.10
2022-10-11T11:05:19.667Z,33.30
2022-10-11T11:06:19.657Z,35.00
2022-10-11T11:07:19.670Z,34.00
2022-10-11T11:08:19.638Z,33.90
2022-10-11T11:09:19.637Z,25.20
2022-10-11T11:10:19.610Z,36.20
2022-10-11T11:11:19.609Z,37.90
2022-10-11T11:12:19.612Z,36.90
2022-10-11T11:13:19.582Z,37.20
2022-10-11T11:14:19.571Z,38.70
2022-10-11T11:15:20.080Z,31.00
2022-10-11T11:16:19.560Z,31.80
2022-10-11T11:17:19.573Z,32.70
2022-10-11T11:18:19.522Z,28.60
2022-10-11T11:19:19.524Z,40.00
2022-10-11T11:20:19.513Z,32.80
2022-10-11T11:21:19.503Z,35.80
2022-10-11T11:22:19.524Z,34.10
2022-10-11T11:23:19.486Z,37.60
2022-10-11T11:24:19.465Z,31.00
2022-10-11T11:25:19.465Z,34.60
2022-10-11T11:26:19.490Z,33.30
2022-10-11T11:27:19.646Z,30.10
2022-10-11T11:28:19.465Z,34.70
2022-10-11T11:29:19.418Z,32.10
2022-10-11T11:30:19.397Z,36.60
2022-10-11T11:31:19.388Z,35.50
2022-10-11T11:32:19.401Z,30.80
2022-10-11T11:33:19.369Z,30.60
2022-10-11T11:34:19.369Z,29.30
2022-10-11T11:35:19.359Z,32.90
2022-10-11T11:36:19.341Z,29.90
2022-10-11T11:37:19.349Z,30.40
2022-10-11T11:38:19.322Z,28.60
2022-10-11T11:39:19.309Z,30.90
2022-10-11T11:40:19.303Z,33.70
2022-10-11T11:41:19.288Z,33.80
2022-10-11T11:42:19.313Z,35.50
2022-10-11T11:43:19.274Z,32.00
2022-10-11T11:44:21.781Z,32.00
2022-10-11T11:45:20.254Z,25.50
2022-10-11T11:46:19.235Z,27.20
2022-10-11T11:47:19.249Z,29.10
2022-10-11T11:48:19.217Z,26.50
2022-10-11T11:49:19.203Z,34.10
2022-10-11T11:50:19.202Z,29.80
2022-10-11T11:51:19.185Z,31.20
2022-10-11T11:52:19.195Z,28.00
2022-10-11T11:53:19.169Z,30.80
2022-10-11T11:54:19.158Z,32.50
2022-10-11T11:55:19.139Z,32.20
2022-10-11T11:56:19.132Z,30.30
2022-10-11T11:57:19.139Z,30.60
2022-10-11T11:58:19.129Z,29.80
2022-10-11T11:59:19.100Z,27.10
2022-10-11T12:00:19.102Z,27.70
2022-10-11T12:01:19.081Z,29.40
2022-10-11T12:02:19.135Z,26.20
2022-10-11T12:03:19.063Z,31.80
2022-10-11T12:04:19.074Z,25.00
2022-10-11T12:05:19.034Z,29.90
2022-10-11T12:06:19.033Z,27.40
2022-10-11T12:07:19.036Z,24.50
2022-10-11T12:08:19.014Z,25.90
2022-10-11T12:09:19.005Z,26.10
2022-10-11T12:10:18.987Z,30.10
2022-10-11T12:11:18.977Z,26.30
2022-10-11T12:12:18.988Z,24.60
2022-10-11T12:13:18.954Z,24.50
2022-10-11T12:14:18.947Z,22.90
2022-10-11T12:15:18.978Z,24.50
2022-10-11T12:16:18.929Z,21.50
2022-10-11T12:17:18.930Z,25.90
2022-10-11T12:18:19.000Z,28.70
2022-10-11T12:19:18.891Z,27.60
2022-10-11T12:20:18.890Z,28.60
2022-10-11T12:21:18.905Z,24.80
2022-10-11T12:22:18.927Z,23.00
2022-10-11T12:23:20.111Z,30.60
2022-10-11T12:24:18.843Z,23.20
2022-10-11T12:25:18.920Z,25.10
2022-10-11T12:26:18.824Z,27.30
2022-10-11T12:27:18.824Z,21.80
2022-10-11T12:28:18.851Z,22.00
2022-10-11T12:29:18.800Z,25.50
2022-10-11T12:30:18.807Z,22.70
2022-10-11T12:31:18.782Z,24.90
2022-10-11T12:32:18.778Z,23.00
2022-10-11T12:33:18.747Z,20.10
2022-10-11T12:34:18.746Z,22.20
2022-10-11T12:35:18.728Z,23.10
2022-10-11T12:36:18.719Z,28.00
2022-10-11T12:37:18.734Z,28.40
2022-10-11T12:38:18.701Z,20.60
2022-10-11T12:39:18.699Z,21.50
2022-10-11T12:40:18.681Z,22.40
2022-10-11T12:41:18.667Z,19.30
2022-10-11T12:42:18.680Z,23.70
2022-10-11T12:43:18.642Z,24.20
2022-10-11T12:44:18.643Z,26.30
2022-10-11T12:45:18.636Z,20.90
2022-10-11T12:46:18.623Z,20.40
2022-10-11T12:47:18.628Z,21.70
2022-10-11T12:48:18.603Z,26.60
2022-10-11T12:49:18.584Z,18.50
2022-10-11T12:50:18.575Z,24.80
2022-10-11T12:51:18.572Z,18.40
2022-10-11T12:52:18.586Z,25.60